sensor_id;sensor_type;location;lat;lon;timestamp;P1;durP1;ratioP1;P2;durP2;ratioP2
18532;SDS011;9396;51.510;11.934;2022-09-04T00:01:05;6.10;;;2.63;;
18532;SDS011;9396;51.510;11.934;2022-09-04T00:03:40;2.97;;;2.40;;
18532;SDS011;9396;51.510;11.934;2022-09-04T00:06:12;6.03;;;2.60;;
18532;SDS011;9396;51.510;11.934;2022-09-04T00:08:50;6.43;;;3.03;;
18532;SDS011;9396;51.510;11.934;2022-09-04T00:11:28;4.50;;;2.67;;
18532;SDS011;9396;51.510;11.934;2022-09-04T00:14:09;3.77;;;2.63;;
18532;SDS011;9396;51.510;11.934;2022-09-04T00:16:40;4.00;;;2.70;;
18532;SDS011;9396;51.510;11.934;2022-09-04T00:19:13;6.20;;;2.70;;
18532;SDS011;9396;51.510;11.934;2022-09-04T00:21:47;4.07;;;3.07;;
18532;SDS011;9396;51.510;11.934;2022-09-04T00:24:18;5.43;;;2.83;;
18532;SDS011;9396;51.510;11.934;2022-09-04T00:26:50;5.63;;;2.70;;
18532;SDS011;9396;51.510;11.934;2022-09-04T00:29:28;4.33;;;2.80;;
18532;SDS011;9396;51.510;11.934;2022-09-04T00:32:08;4.50;;;2.67;;
18532;SDS011;9396;51.510;11.934;2022-09-04T00:34:55;2.97;;;2.17;;
18532;SDS011;9396;51.510;11.934;2022-09-04T00:37:30;5.00;;;2.63;;
18532;SDS011;9396;51.510;11.934;2022-09-04T00:40:03;4.73;;;2.93;;
18532;SDS011;9396;51.510;11.934;2022-09-04T00:42:39;4.50;;;2.70;;
18532;SDS011;9396;51.510;11.934;2022-09-04T00:45:27;7.60;;;2.90;;
18532;SDS011;9396;51.510;11.934;2022-09-04T00:48:08;5.67;;;2.70;;
18532;SDS011;9396;51.510;11.934;2022-09-04T00:50:53;4.70;;;3.13;;
18532;SDS011;9396;51.510;11.934;2022-09-04T00:57:01;3.57;;;3.13;;
18532;SDS011;9396;51.510;11.934;2022-09-04T00:59:53;3.90;;;2.87;;
18532;SDS011;9396;51.510;11.934;2022-09-04T01:02:38;6.30;;;2.80;;
18532;SDS011;9396;51.510;11.934;2022-09-04T01:05:25;3.87;;;2.57;;
18532;SDS011;9396;51.510;11.934;2022-09-04T01:08:08;4.17;;;2.90;;
18532;SDS011;9396;51.510;11.934;2022-09-04T01:10:44;5.10;;;2.93;;
18532;SDS011;9396;51.510;11.934;2022-09-04T01:13:27;5.70;;;2.90;;
18532;SDS011;9396;51.510;11.934;2022-09-04T01:16:00;3.63;;;2.70;;
18532;SDS011;9396;51.510;11.934;2022-09-04T01:18:33;4.73;;;3.10;;
18532;SDS011;9396;51.510;11.934;2022-09-04T01:27:06;4.77;;;3.20;;
18532;SDS011;9396;51.510;11.934;2022-09-04T01:29:36;6.30;;;2.83;;
18532;SDS011;9396;51.510;11.934;2022-09-04T01:32:14;7.30;;;3.80;;
18532;SDS011;9396;51.510;11.934;2022-09-04T01:34:51;4.30;;;3.00;;
18532;SDS011;9396;51.510;11.934;2022-09-04T01:37:32;3.77;;;2.70;;
18532;SDS011;9396;51.510;11.934;2022-09-04T01:40:22;5.53;;;2.90;;
18532;SDS011;9396;51.510;11.934;2022-09-04T01:42:58;4.30;;;3.00;;
18532;SDS011;9396;51.510;11.934;2022-09-04T01:45:32;3.83;;;2.50;;
18532;SDS011;9396;51.510;11.934;2022-09-04T01:48:10;4.80;;;3.13;;
18532;SDS011;9396;51.510;11.934;2022-09-04T01:50:43;8.07;;;3.20;;
18532;SDS011;9396;51.510;11.934;2022-09-04T01:53:16;5.60;;;3.03;;
18532;SDS011;9396;51.510;11.934;2022-09-04T01:55:50;5.33;;;3.33;;
18532;SDS011;9396;51.510;11.934;2022-09-04T01:58:32;5.60;;;3.07;;
18532;SDS011;9396;51.510;11.934;2022-09-04T02:01:09;4.10;;;3.17;;
18532;SDS011;9396;51.510;11.934;2022-09-04T02:03:44;4.80;;;3.20;;
18532;SDS011;9396;51.510;11.934;2022-09-04T02:06:20;3.53;;;2.87;;
18532;SDS011;9396;51.510;11.934;2022-09-04T02:09:04;4.97;;;3.10;;
18532;SDS011;9396;51.510;11.934;2022-09-04T02:11:39;8.77;;;3.03;;
18532;SDS011;9396;51.510;11.934;2022-09-04T02:14:25;5.73;;;3.13;;
18532;SDS011;9396;51.510;11.934;2022-09-04T02:17:06;4.90;;;3.00;;
18532;SDS011;9396;51.510;11.934;2022-09-04T02:19:40;8.47;;;2.80;;
18532;SDS011;9396;51.510;11.934;2022-09-04T02:22:23;7.47;;;3.23;;
18532;SDS011;9396;51.510;11.934;2022-09-04T02:24:59;6.90;;;3.00;;
18532;SDS011;9396;51.510;11.934;2022-09-04T02:27:34;4.10;;;3.13;;
18532;SDS011;9396;51.510;11.934;2022-09-04T02:30:12;3.73;;;2.80;;
18532;SDS011;9396;51.510;11.934;2022-09-04T02:32:41;4.93;;;2.60;;
18532;SDS011;9396;51.510;11.934;2022-09-04T02:35:15;3.87;;;2.93;;
18532;SDS011;9396;51.510;11.934;2022-09-04T02:37:52;4.03;;;2.67;;
18532;SDS011;9396;51.510;11.934;2022-09-04T02:40:29;6.97;;;2.77;;
18532;SDS011;9396;51.510;11.934;2022-09-04T02:43:05;4.43;;;2.90;;
18532;SDS011;9396;51.510;11.934;2022-09-04T02:45:54;4.93;;;2.63;;
18532;SDS011;9396;51.510;11.934;2022-09-04T02:48:30;4.07;;;2.80;;
18532;SDS011;9396;51.510;11.934;2022-09-04T02:51:09;4.40;;;3.07;;
18532;SDS011;9396;51.510;11.934;2022-09-04T02:53:48;5.27;;;2.70;;
18532;SDS011;9396;51.510;11.934;2022-09-04T02:56:24;5.17;;;2.83;;
18532;SDS011;9396;51.510;11.934;2022-09-04T02:59:08;4.33;;;2.90;;
18532;SDS011;9396;51.510;11.934;2022-09-04T03:01:45;5.23;;;3.00;;
18532;SDS011;9396;51.510;11.934;2022-09-04T03:04:19;4.73;;;3.10;;
18532;SDS011;9396;51.510;11.934;2022-09-04T03:06:51;6.73;;;3.00;;
18532;SDS011;9396;51.510;11.934;2022-09-04T03:09:21;5.40;;;3.60;;
18532;SDS011;9396;51.510;11.934;2022-09-04T03:11:53;5.53;;;3.00;;
18532;SDS011;9396;51.510;11.934;2022-09-04T03:14:27;5.80;;;3.30;;
18532;SDS011;9396;51.510;11.934;2022-09-04T03:17:01;4.37;;;2.97;;
18532;SDS011;9396;51.510;11.934;2022-09-04T03:19:35;3.87;;;3.07;;
18532;SDS011;9396;51.510;11.934;2022-09-04T03:22:09;5.63;;;3.00;;
18532;SDS011;9396;51.510;11.934;2022-09-04T03:24:41;4.07;;;3.30;;
18532;SDS011;9396;51.510;11.934;2022-09-04T03:27:22;6.27;;;3.13;;
18532;SDS011;9396;51.510;11.934;2022-09-04T03:29:52;4.53;;;3.27;;
18532;SDS011;9396;51.510;11.934;2022-09-04T03:32:27;3.97;;;2.93;;
18532;SDS011;9396;51.510;11.934;2022-09-04T03:35:02;5.10;;;3.50;;
18532;SDS011;9396;51.510;11.934;2022-09-04T03:40:31;4.40;;;2.87;;
18532;SDS011;9396;51.510;11.934;2022-09-04T03:46:13;4.00;;;3.23;;
18532;SDS011;9396;51.510;11.934;2022-09-04T03:48:54;6.33;;;3.37;;
18532;SDS011;9396;51.510;11.934;2022-09-04T03:51:32;6.53;;;3.47;;
18532;SDS011;9396;51.510;11.934;2022-09-04T03:54:09;5.87;;;3.30;;
18532;SDS011;9396;51.510;11.934;2022-09-04T03:56:55;4.80;;;3.43;;
18532;SDS011;9396;51.510;11.934;2022-09-04T03:59:37;7.53;;;4.20;;
18532;SDS011;9396;51.510;11.934;2022-09-04T04:02:15;9.03;;;3.60;;
18532;SDS011;9396;51.510;11.934;2022-09-04T04:05:12;7.43;;;3.67;;
18532;SDS011;9396;51.510;11.934;2022-09-04T04:08:02;4.73;;;3.10;;
18532;SDS011;9396;51.510;11.934;2022-09-04T04:10:46;5.27;;;3.40;;
18532;SDS011;9396;51.510;11.934;2022-09-04T04:16:23;5.33;;;3.40;;
18532;SDS011;9396;51.510;11.934;2022-09-04T04:19:03;5.60;;;3.53;;
18532;SDS011;9396;51.510;11.934;2022-09-04T04:21:53;6.03;;;3.47;;
18532;SDS011;9396;51.510;11.934;2022-09-04T04:24:54;6.43;;;3.63;;
18532;SDS011;9396;51.510;11.934;2022-09-04T04:27:41;5.77;;;3.27;;
18532;SDS011;9396;51.510;11.934;2022-09-04T04:30:22;5.07;;;3.50;;
18532;SDS011;9396;51.510;11.934;2022-09-04T04:33:03;6.13;;;3.70;;
18532;SDS011;9396;51.510;11.934;2022-09-04T04:35:48;4.20;;;2.93;;
18532;SDS011;9396;51.510;11.934;2022-09-04T04:38:29;5.93;;;3.70;;
18532;SDS011;9396;51.510;11.934;2022-09-04T04:41:08;5.20;;;3.30;;
18532;SDS011;9396;51.510;11.934;2022-09-04T04:43:58;4.73;;;3.13;;
18532;SDS011;9396;51.510;11.934;2022-09-04T04:46:41;6.37;;;3.40;;
18532;SDS011;9396;51.510;11.934;2022-09-04T04:49:30;5.23;;;3.70;;
18532;SDS011;9396;51.510;11.934;2022-09-04T04:52:10;5.53;;;3.60;;
18532;SDS011;9396;51.510;11.934;2022-09-04T04:54:56;6.20;;;3.53;;
18532;SDS011;9396;51.510;11.934;2022-09-04T04:57:33;6.50;;;3.60;;
18532;SDS011;9396;51.510;11.934;2022-09-04T05:00:11;7.23;;;3.73;;
18532;SDS011;9396;51.510;11.934;2022-09-04T05:02:45;6.40;;;3.70;;
18532;SDS011;9396;51.510;11.934;2022-09-04T05:05:39;6.60;;;3.60;;
18532;SDS011;9396;51.510;11.934;2022-09-04T05:08:14;4.47;;;3.30;;
18532;SDS011;9396;51.510;11.934;2022-09-04T05:10:52;6.00;;;3.70;;
18532;SDS011;9396;51.510;11.934;2022-09-04T05:13:26;7.23;;;3.97;;
18532;SDS011;9396;51.510;11.934;2022-09-04T05:16:03;7.33;;;3.20;;
18532;SDS011;9396;51.510;11.934;2022-09-04T05:18:35;6.53;;;3.60;;
18532;SDS011;9396;51.510;11.934;2022-09-04T05:21:15;6.83;;;3.90;;
18532;SDS011;9396;51.510;11.934;2022-09-04T05:23:49;5.53;;;3.87;;
18532;SDS011;9396;51.510;11.934;2022-09-04T05:26:25;7.27;;;4.20;;
18532;SDS011;9396;51.510;11.934;2022-09-04T05:29:00;4.53;;;3.63;;
18532;SDS011;9396;51.510;11.934;2022-09-04T05:31:36;9.07;;;3.47;;
18532;SDS011;9396;51.510;11.934;2022-09-04T05:34:15;6.57;;;4.27;;
18532;SDS011;9396;51.510;11.934;2022-09-04T05:36:55;11.43;;;4.10;;
18532;SDS011;9396;51.510;11.934;2022-09-04T05:39:29;4.93;;;3.83;;
18532;SDS011;9396;51.510;11.934;2022-09-04T05:42:09;4.37;;;3.97;;
18532;SDS011;9396;51.510;11.934;2022-09-04T05:45:05;5.67;;;3.43;;
18532;SDS011;9396;51.510;11.934;2022-09-04T05:47:41;6.70;;;4.10;;
18532;SDS011;9396;51.510;11.934;2022-09-04T05:50:20;7.57;;;4.07;;
18532;SDS011;9396;51.510;11.934;2022-09-04T05:53:10;5.40;;;4.23;;
18532;SDS011;9396;51.510;11.934;2022-09-04T05:55:56;5.27;;;4.30;;
18532;SDS011;9396;51.510;11.934;2022-09-04T05:58:51;5.60;;;4.23;;
18532;SDS011;9396;51.510;11.934;2022-09-04T06:01:43;6.03;;;4.03;;
18532;SDS011;9396;51.510;11.934;2022-09-04T06:04:28;6.03;;;4.30;;
18532;SDS011;9396;51.510;11.934;2022-09-04T06:07:05;7.60;;;4.37;;
18532;SDS011;9396;51.510;11.934;2022-09-04T06:09:45;8.30;;;4.53;;
18532;SDS011;9396;51.510;11.934;2022-09-04T06:15:37;5.83;;;4.17;;
18532;SDS011;9396;51.510;11.934;2022-09-04T06:18:18;10.30;;;5.20;;
18532;SDS011;9396;51.510;11.934;2022-09-04T06:21:14;7.40;;;4.43;;
18532;SDS011;9396;51.510;11.934;2022-09-04T06:24:21;5.53;;;4.30;;
18532;SDS011;9396;51.510;11.934;2022-09-04T06:27:06;8.87;;;4.63;;
18532;SDS011;9396;51.510;11.934;2022-09-04T06:35:50;4.67;;;4.20;;
18532;SDS011;9396;51.510;11.934;2022-09-04T06:38:31;6.00;;;4.30;;
18532;SDS011;9396;51.510;11.934;2022-09-04T06:41:10;6.73;;;4.33;;
18532;SDS011;9396;51.510;11.934;2022-09-04T06:43:54;6.90;;;4.67;;
18532;SDS011;9396;51.510;11.934;2022-09-04T06:46:29;8.50;;;4.53;;
18532;SDS011;9396;51.510;11.934;2022-09-04T06:49:02;4.97;;;3.83;;
18532;SDS011;9396;51.510;11.934;2022-09-04T06:51:45;10.23;;;5.00;;
18532;SDS011;9396;51.510;11.934;2022-09-04T06:54:30;6.90;;;3.97;;
18532;SDS011;9396;51.510;11.934;2022-09-04T06:57:12;4.97;;;4.30;;
18532;SDS011;9396;51.510;11.934;2022-09-04T06:59:55;6.93;;;4.40;;
18532;SDS011;9396;51.510;11.934;2022-09-04T07:02:38;11.37;;;4.53;;
18532;SDS011;9396;51.510;11.934;2022-09-04T07:05:22;5.80;;;4.53;;
18532;SDS011;9396;51.510;11.934;2022-09-04T07:07:56;6.10;;;4.30;;
18532;SDS011;9396;51.510;11.934;2022-09-04T07:10:30;9.37;;;4.03;;
18532;SDS011;9396;51.510;11.934;2022-09-04T07:16:14;4.33;;;3.60;;
18532;SDS011;9396;51.510;11.934;2022-09-04T07:19:04;6.17;;;3.93;;
18532;SDS011;9396;51.510;11.934;2022-09-04T07:21:47;6.13;;;3.40;;
18532;SDS011;9396;51.510;11.934;2022-09-04T07:24:39;4.60;;;3.67;;
18532;SDS011;9396;51.510;11.934;2022-09-04T07:27:16;4.83;;;3.30;;
18532;SDS011;9396;51.510;11.934;2022-09-04T07:30:00;5.73;;;3.73;;
18532;SDS011;9396;51.510;11.934;2022-09-04T07:32:30;4.33;;;3.73;;
18532;SDS011;9396;51.510;11.934;2022-09-04T07:35:03;5.10;;;3.57;;
18532;SDS011;9396;51.510;11.934;2022-09-04T07:37:39;5.50;;;4.10;;
18532;SDS011;9396;51.510;11.934;2022-09-04T07:40:14;8.33;;;3.90;;
18532;SDS011;9396;51.510;11.934;2022-09-04T07:42:46;5.00;;;3.47;;
18532;SDS011;9396;51.510;11.934;2022-09-04T07:45:27;6.53;;;4.00;;
18532;SDS011;9396;51.510;11.934;2022-09-04T07:47:58;5.93;;;4.23;;
18532;SDS011;9396;51.510;11.934;2022-09-04T07:50:38;6.73;;;3.60;;
18532;SDS011;9396;51.510;11.934;2022-09-04T07:53:29;4.87;;;3.90;;
18532;SDS011;9396;51.510;11.934;2022-09-04T07:56:11;5.13;;;3.83;;
18532;SDS011;9396;51.510;11.934;2022-09-04T07:58:55;4.83;;;3.63;;
18532;SDS011;9396;51.510;11.934;2022-09-04T08:01:41;8.90;;;4.37;;
18532;SDS011;9396;51.510;11.934;2022-09-04T08:04:23;5.20;;;3.53;;
18532;SDS011;9396;51.510;11.934;2022-09-04T08:07:11;6.50;;;3.70;;
18532;SDS011;9396;51.510;11.934;2022-09-04T08:12:46;4.53;;;3.70;;
18532;SDS011;9396;51.510;11.934;2022-09-04T08:15:22;6.50;;;4.30;;
18532;SDS011;9396;51.510;11.934;2022-09-04T08:18:02;7.03;;;3.60;;
18532;SDS011;9396;51.510;11.934;2022-09-04T08:20:44;5.33;;;3.67;;
18532;SDS011;9396;51.510;11.934;2022-09-04T08:26:18;6.03;;;4.00;;
18532;SDS011;9396;51.510;11.934;2022-09-04T08:29:04;5.23;;;3.70;;
18532;SDS011;9396;51.510;11.934;2022-09-04T08:31:45;8.10;;;4.20;;
18532;SDS011;9396;51.510;11.934;2022-09-04T08:34:35;6.30;;;3.67;;
18532;SDS011;9396;51.510;11.934;2022-09-04T08:37:20;5.50;;;4.00;;
18532;SDS011;9396;51.510;11.934;2022-09-04T08:39:52;6.50;;;3.30;;
18532;SDS011;9396;51.510;11.934;2022-09-04T08:45:43;5.07;;;3.77;;
18532;SDS011;9396;51.510;11.934;2022-09-04T08:48:53;3.93;;;3.53;;
18532;SDS011;9396;51.510;11.934;2022-09-04T08:51:49;7.73;;;4.20;;
18532;SDS011;9396;51.510;11.934;2022-09-04T08:54:41;8.70;;;3.90;;
18532;SDS011;9396;51.510;11.934;2022-09-04T08:57:45;3.47;;;3.17;;
18532;SDS011;9396;51.510;11.934;2022-09-04T09:00:47;4.50;;;3.60;;
18532;SDS011;9396;51.510;11.934;2022-09-04T09:03:40;4.17;;;3.20;;
18532;SDS011;9396;51.510;11.934;2022-09-04T09:06:59;4.63;;;3.20;;
18532;SDS011;9396;51.510;11.934;2022-09-04T09:16:20;5.60;;;3.50;;
18532;SDS011;9396;51.510;11.934;2022-09-04T09:19:03;6.57;;;3.20;;
18532;SDS011;9396;51.510;11.934;2022-09-04T09:21:42;3.60;;;2.90;;
18532;SDS011;9396;51.510;11.934;2022-09-04T09:24:32;5.97;;;3.00;;
18532;SDS011;9396;51.510;11.934;2022-09-04T09:27:19;7.87;;;3.20;;
18532;SDS011;9396;51.510;11.934;2022-09-04T09:30:05;5.47;;;2.87;;
18532;SDS011;9396;51.510;11.934;2022-09-04T09:39:14;4.13;;;3.20;;
18532;SDS011;9396;51.510;11.934;2022-09-04T09:45:13;6.70;;;3.60;;
18532;SDS011;9396;51.510;11.934;2022-09-04T09:48:11;4.77;;;2.97;;
18532;SDS011;9396;51.510;11.934;2022-09-04T09:51:26;3.53;;;2.83;;
18532;SDS011;9396;51.510;11.934;2022-09-04T09:54:23;3.87;;;3.20;;
18532;SDS011;9396;51.510;11.934;2022-09-04T10:00:32;4.57;;;3.27;;
18532;SDS011;9396;51.510;11.934;2022-09-04T10:09:37;3.77;;;3.07;;
18532;SDS011;9396;51.510;11.934;2022-09-04T10:28:00;4.13;;;3.23;;
18532;SDS011;9396;51.510;11.934;2022-09-04T10:31:06;4.97;;;3.43;;
18532;SDS011;9396;51.510;11.934;2022-09-04T10:33:59;7.27;;;3.43;;
18532;SDS011;9396;51.510;11.934;2022-09-04T10:36:40;7.17;;;2.87;;
18532;SDS011;9396;51.510;11.934;2022-09-04T10:39:20;3.40;;;2.97;;
18532;SDS011;9396;51.510;11.934;2022-09-04T10:42:19;6.40;;;3.03;;
18532;SDS011;9396;51.510;11.934;2022-09-04T10:45:00;6.87;;;3.20;;
18532;SDS011;9396;51.510;11.934;2022-09-04T10:53:44;3.53;;;2.90;;
18532;SDS011;9396;51.510;11.934;2022-09-04T10:56:31;4.60;;;2.80;;
18532;SDS011;9396;51.510;11.934;2022-09-04T10:59:23;4.80;;;2.80;;
18532;SDS011;9396;51.510;11.934;2022-09-04T11:02:16;4.10;;;2.80;;
18532;SDS011;9396;51.510;11.934;2022-09-04T11:05:10;4.70;;;3.50;;
18532;SDS011;9396;51.510;11.934;2022-09-04T11:10:56;3.10;;;2.53;;
18532;SDS011;9396;51.510;11.934;2022-09-04T11:25:45;4.97;;;3.10;;
18532;SDS011;9396;51.510;11.934;2022-09-04T11:31:30;3.77;;;2.70;;
18532;SDS011;9396;51.510;11.934;2022-09-04T11:37:27;8.60;;;3.20;;
18532;SDS011;9396;51.510;11.934;2022-09-04T11:40:29;8.10;;;3.10;;
18532;SDS011;9396;51.510;11.934;2022-09-04T11:43:17;3.33;;;2.73;;
18532;SDS011;9396;51.510;11.934;2022-09-04T11:46:06;3.90;;;2.97;;
18532;SDS011;9396;51.510;11.934;2022-09-04T11:49:20;5.23;;;2.83;;
18532;SDS011;9396;51.510;11.934;2022-09-04T11:52:20;3.13;;;2.50;;
18532;SDS011;9396;51.510;11.934;2022-09-04T12:01:19;3.33;;;2.87;;
18532;SDS011;9396;51.510;11.934;2022-09-04T12:04:05;4.70;;;2.73;;
18532;SDS011;9396;51.510;11.934;2022-09-04T12:06:51;4.77;;;2.53;;
18532;SDS011;9396;51.510;11.934;2022-09-04T12:09:33;4.60;;;2.77;;
18532;SDS011;9396;51.510;11.934;2022-09-04T12:12:19;3.70;;;2.50;;
18532;SDS011;9396;51.510;11.934;2022-09-04T12:15:07;6.20;;;2.80;;
18532;SDS011;9396;51.510;11.934;2022-09-04T12:18:04;3.60;;;2.80;;
18532;SDS011;9396;51.510;11.934;2022-09-04T12:20:51;3.90;;;2.67;;
18532;SDS011;9396;51.510;11.934;2022-09-04T12:23:47;3.63;;;2.97;;
18532;SDS011;9396;51.510;11.934;2022-09-04T12:29:31;4.87;;;3.23;;
18532;SDS011;9396;51.510;11.934;2022-09-04T12:35:30;4.77;;;3.00;;
18532;SDS011;9396;51.510;11.934;2022-09-04T12:41:41;3.40;;;2.90;;
18532;SDS011;9396;51.510;11.934;2022-09-04T12:44:15;2.90;;;2.70;;
18532;SDS011;9396;51.510;11.934;2022-09-04T12:46:58;3.80;;;2.90;;
18532;SDS011;9396;51.510;11.934;2022-09-04T12:52:33;3.73;;;2.80;;
18532;SDS011;9396;51.510;11.934;2022-09-04T12:55:12;3.10;;;2.40;;
18532;SDS011;9396;51.510;11.934;2022-09-04T12:57:48;3.90;;;2.73;;
18532;SDS011;9396;51.510;11.934;2022-09-04T13:00:25;3.10;;;2.70;;
18532;SDS011;9396;51.510;11.934;2022-09-04T13:03:02;4.37;;;2.90;;
18532;SDS011;9396;51.510;11.934;2022-09-04T13:08:35;4.13;;;3.07;;
18532;SDS011;9396;51.510;11.934;2022-09-04T13:11:17;3.53;;;2.60;;
18532;SDS011;9396;51.510;11.934;2022-09-04T13:14:03;4.40;;;2.83;;
18532;SDS011;9396;51.510;11.934;2022-09-04T13:16:44;4.17;;;2.73;;
18532;SDS011;9396;51.510;11.934;2022-09-04T13:19:22;7.17;;;2.80;;
18532;SDS011;9396;51.510;11.934;2022-09-04T13:22:00;3.10;;;2.80;;
18532;SDS011;9396;51.510;11.934;2022-09-04T13:24:40;3.93;;;2.40;;
18532;SDS011;9396;51.510;11.934;2022-09-04T13:27:20;4.47;;;2.70;;
18532;SDS011;9396;51.510;11.934;2022-09-04T13:30:01;2.97;;;2.53;;
18532;SDS011;9396;51.510;11.934;2022-09-04T13:32:33;3.73;;;2.37;;
18532;SDS011;9396;51.510;11.934;2022-09-04T13:35:15;4.37;;;2.70;;
18532;SDS011;9396;51.510;11.934;2022-09-04T13:40:57;3.00;;;2.57;;
18532;SDS011;9396;51.510;11.934;2022-09-04T13:43:50;2.90;;;2.53;;
18532;SDS011;9396;51.510;11.934;2022-09-04T13:46:42;3.37;;;2.60;;
18532;SDS011;9396;51.510;11.934;2022-09-04T13:49:19;3.47;;;2.60;;
18532;SDS011;9396;51.510;11.934;2022-09-04T13:51:54;5.00;;;2.30;;
18532;SDS011;9396;51.510;11.934;2022-09-04T13:54:28;5.23;;;2.60;;
18532;SDS011;9396;51.510;11.934;2022-09-04T13:57:02;3.87;;;2.40;;
18532;SDS011;9396;51.510;11.934;2022-09-04T13:59:32;4.23;;;2.60;;
18532;SDS011;9396;51.510;11.934;2022-09-04T14:02:01;3.53;;;2.43;;
18532;SDS011;9396;51.510;11.934;2022-09-04T14:04:34;2.87;;;2.40;;
18532;SDS011;9396;51.510;11.934;2022-09-04T14:07:08;3.57;;;2.50;;
18532;SDS011;9396;51.510;11.934;2022-09-04T14:09:41;6.60;;;2.17;;
18532;SDS011;9396;51.510;11.934;2022-09-04T14:12:15;3.37;;;2.60;;
18532;SDS011;9396;51.510;11.934;2022-09-04T14:15:04;3.77;;;2.30;;
18532;SDS011;9396;51.510;11.934;2022-09-04T14:17:45;4.30;;;2.27;;
18532;SDS011;9396;51.510;11.934;2022-09-04T14:20:21;2.97;;;2.27;;
18532;SDS011;9396;51.510;11.934;2022-09-04T14:22:55;3.70;;;2.50;;
18532;SDS011;9396;51.510;11.934;2022-09-04T14:25:28;5.03;;;2.20;;
18532;SDS011;9396;51.510;11.934;2022-09-04T14:28:05;3.10;;;2.20;;
18532;SDS011;9396;51.510;11.934;2022-09-04T14:30:43;5.47;;;2.40;;
18532;SDS011;9396;51.510;11.934;2022-09-04T14:33:23;2.40;;;2.20;;
18532;SDS011;9396;51.510;11.934;2022-09-04T14:36:02;2.60;;;2.27;;
18532;SDS011;9396;51.510;11.934;2022-09-04T14:41:42;4.43;;;2.57;;
18532;SDS011;9396;51.510;11.934;2022-09-04T14:44:22;5.63;;;2.50;;
18532;SDS011;9396;51.510;11.934;2022-09-04T14:47:02;2.77;;;2.27;;
18532;SDS011;9396;51.510;11.934;2022-09-04T14:49:38;2.33;;;2.03;;
18532;SDS011;9396;51.510;11.934;2022-09-04T14:52:09;3.40;;;2.33;;
18532;SDS011;9396;51.510;11.934;2022-09-04T14:54:45;5.03;;;2.40;;
18532;SDS011;9396;51.510;11.934;2022-09-04T14:57:17;3.33;;;2.40;;
18532;SDS011;9396;51.510;11.934;2022-09-04T14:59:54;4.20;;;2.30;;
18532;SDS011;9396;51.510;11.934;2022-09-04T15:02:27;3.57;;;2.40;;
18532;SDS011;9396;51.510;11.934;2022-09-04T15:05:00;2.20;;;2.00;;
18532;SDS011;9396;51.510;11.934;2022-09-04T15:07:51;2.47;;;2.23;;
18532;SDS011;9396;51.510;11.934;2022-09-04T15:10:26;4.13;;;2.40;;
18532;SDS011;9396;51.510;11.934;2022-09-04T15:16:11;2.60;;;2.33;;
18532;SDS011;9396;51.510;11.934;2022-09-04T15:18:49;2.10;;;1.90;;
18532;SDS011;9396;51.510;11.934;2022-09-04T15:21:22;2.83;;;2.20;;
18532;SDS011;9396;51.510;11.934;2022-09-04T15:23:59;5.83;;;2.00;;
18532;SDS011;9396;51.510;11.934;2022-09-04T15:26:31;3.83;;;2.17;;
18532;SDS011;9396;51.510;11.934;2022-09-04T15:29:04;4.27;;;2.20;;
18532;SDS011;9396;51.510;11.934;2022-09-04T15:31:38;2.73;;;2.13;;
18532;SDS011;9396;51.510;11.934;2022-09-04T15:34:07;2.80;;;2.17;;
18532;SDS011;9396;51.510;11.934;2022-09-04T15:36:44;2.87;;;2.20;;
18532;SDS011;9396;51.510;11.934;2022-09-04T15:39:12;3.03;;;2.13;;
18532;SDS011;9396;51.510;11.934;2022-09-04T15:41:53;2.60;;;2.00;;
18532;SDS011;9396;51.510;11.934;2022-09-04T15:44:21;3.90;;;2.33;;
18532;SDS011;9396;51.510;11.934;2022-09-04T15:46:55;5.57;;;2.20;;
18532;SDS011;9396;51.510;11.934;2022-09-04T15:49:29;2.77;;;2.23;;
18532;SDS011;9396;51.510;11.934;2022-09-04T15:52:17;3.70;;;2.27;;
18532;SDS011;9396;51.510;11.934;2022-09-04T15:54:53;3.43;;;2.20;;
18532;SDS011;9396;51.510;11.934;2022-09-04T15:57:27;2.83;;;2.40;;
18532;SDS011;9396;51.510;11.934;2022-09-04T16:00:07;3.37;;;2.00;;
18532;SDS011;9396;51.510;11.934;2022-09-04T16:02:36;2.70;;;2.07;;
18532;SDS011;9396;51.510;11.934;2022-09-04T16:05:14;2.40;;;2.17;;
18532;SDS011;9396;51.510;11.934;2022-09-04T16:07:47;3.77;;;2.70;;
18532;SDS011;9396;51.510;11.934;2022-09-04T16:10:28;2.33;;;2.10;;
18532;SDS011;9396;51.510;11.934;2022-09-04T16:13:09;4.70;;;2.40;;
18532;SDS011;9396;51.510;11.934;2022-09-04T16:15:57;6.70;;;2.47;;
18532;SDS011;9396;51.510;11.934;2022-09-04T16:18:36;5.00;;;2.10;;
18532;SDS011;9396;51.510;11.934;2022-09-04T16:21:11;3.13;;;2.30;;
18532;SDS011;9396;51.510;11.934;2022-09-04T16:23:47;2.50;;;1.90;;
18532;SDS011;9396;51.510;11.934;2022-09-04T16:26:16;3.17;;;2.30;;
18532;SDS011;9396;51.510;11.934;2022-09-04T16:28:50;2.23;;;1.90;;
18532;SDS011;9396;51.510;11.934;2022-09-04T16:31:24;5.97;;;2.10;;
18532;SDS011;9396;51.510;11.934;2022-09-04T16:33:58;2.97;;;1.83;;
18532;SDS011;9396;51.510;11.934;2022-09-04T16:36:30;6.07;;;2.23;;
18532;SDS011;9396;51.510;11.934;2022-09-04T16:39:04;5.30;;;2.10;;
18532;SDS011;9396;51.510;11.934;2022-09-04T16:41:39;3.63;;;2.30;;
18532;SDS011;9396;51.510;11.934;2022-09-04T16:44:18;3.13;;;2.13;;
18532;SDS011;9396;51.510;11.934;2022-09-04T16:46:51;4.43;;;1.90;;
18532;SDS011;9396;51.510;11.934;2022-09-04T16:49:28;3.10;;;2.17;;
18532;SDS011;9396;51.510;11.934;2022-09-04T16:52:14;3.90;;;2.20;;
18532;SDS011;9396;51.510;11.934;2022-09-04T16:54:51;3.90;;;1.93;;
18532;SDS011;9396;51.510;11.934;2022-09-04T16:57:20;2.30;;;2.00;;
18532;SDS011;9396;51.510;11.934;2022-09-04T16:59:55;5.43;;;2.47;;
18532;SDS011;9396;51.510;11.934;2022-09-04T17:02:28;4.70;;;2.70;;
18532;SDS011;9396;51.510;11.934;2022-09-04T17:05:08;4.83;;;2.67;;
18532;SDS011;9396;51.510;11.934;2022-09-04T17:07:43;4.83;;;2.20;;
18532;SDS011;9396;51.510;11.934;2022-09-04T17:10:22;4.13;;;2.40;;
18532;SDS011;9396;51.510;11.934;2022-09-04T17:12:56;5.03;;;2.50;;
18532;SDS011;9396;51.510;11.934;2022-09-04T17:15:30;5.27;;;2.30;;
18532;SDS011;9396;51.510;11.934;2022-09-04T17:18:06;3.37;;;1.90;;
18532;SDS011;9396;51.510;11.934;2022-09-04T17:20:34;3.30;;;2.40;;
18532;SDS011;9396;51.510;11.934;2022-09-04T17:23:11;2.67;;;2.33;;
18532;SDS011;9396;51.510;11.934;2022-09-04T17:25:46;2.77;;;2.10;;
18532;SDS011;9396;51.510;11.934;2022-09-04T17:31:17;2.33;;;2.10;;
18532;SDS011;9396;51.510;11.934;2022-09-04T17:33:52;4.30;;;2.13;;
18532;SDS011;9396;51.510;11.934;2022-09-04T17:36:25;11.73;;;2.60;;
18532;SDS011;9396;51.510;11.934;2022-09-04T17:38:59;3.13;;;2.20;;
18532;SDS011;9396;51.510;11.934;2022-09-04T17:41:35;4.93;;;2.60;;
18532;SDS011;9396;51.510;11.934;2022-09-04T17:47:15;3.27;;;2.10;;
18532;SDS011;9396;51.510;11.934;2022-09-04T17:49:51;5.70;;;2.50;;
18532;SDS011;9396;51.510;11.934;2022-09-04T17:52:20;3.57;;;2.23;;
18532;SDS011;9396;51.510;11.934;2022-09-04T17:54:51;4.27;;;2.50;;
18532;SDS011;9396;51.510;11.934;2022-09-04T17:57:22;3.03;;;2.40;;
18532;SDS011;9396;51.510;11.934;2022-09-04T17:59:58;4.90;;;2.20;;
18532;SDS011;9396;51.510;11.934;2022-09-04T18:02:32;2.23;;;2.03;;
18532;SDS011;9396;51.510;11.934;2022-09-04T18:05:11;5.63;;;2.50;;
18532;SDS011;9396;51.510;11.934;2022-09-04T18:07:44;2.83;;;2.00;;
18532;SDS011;9396;51.510;11.934;2022-09-04T18:10:16;2.47;;;2.00;;
18532;SDS011;9396;51.510;11.934;2022-09-04T18:12:50;7.10;;;2.83;;
18532;SDS011;9396;51.510;11.934;2022-09-04T18:15:29;3.43;;;2.53;;
18532;SDS011;9396;51.510;11.934;2022-09-04T18:18:04;3.77;;;2.57;;
18532;SDS011;9396;51.510;11.934;2022-09-04T18:20:36;3.53;;;2.20;;
18532;SDS011;9396;51.510;11.934;2022-09-04T18:23:16;4.57;;;2.10;;
18532;SDS011;9396;51.510;11.934;2022-09-04T18:25:50;3.13;;;2.20;;
18532;SDS011;9396;51.510;11.934;2022-09-04T18:28:21;2.70;;;2.10;;
18532;SDS011;9396;51.510;11.934;2022-09-04T18:30:56;3.27;;;2.50;;